Time;durP1;ratioP1;P1;durP2;ratioP2;P2;SDS_P1;SDS_P2;PMS_P1;PMS_P2;Temp;Humidity;BMP_temperature;BMP_pressure;BME280_temperature;BME280_humidity;BME280_pressure;Samples;Min_cycle;Max_cycle;Signal;HPM_P1;HPM_P2
2024/01/05 00:00:58;;;;;;;0.60;0.60;;;10.00;70.70;;;;;;5074115;28;20028;-71
2024/01/05 00:03:24;;;;;;;0.40;0.40;;;10.00;70.80;;;;;;5060893;28;20099;-72
2024/01/05 00:05:50;;;;;;;0.55;0.55;;;10.00;70.80;;;;;;5077102;28;20119;-72
2024/01/05 00:08:15;;;;;;;0.55;0.55;;;10.00;70.80;;;;;;5052602;28;20025;-73
2024/01/05 00:10:41;;;;;;;0.50;0.50;;;10.10;70.90;;;;;;5071585;28;20052;-72
2024/01/05 00:13:06;;;;;;;0.50;0.50;;;10.10;70.80;;;;;;5080941;28;20023;-73
2024/01/05 00:15:32;;;;;;;0.50;0.50;;;10.00;70.90;;;;;;5087097;28;20317;-73
2024/01/05 00:17:58;;;;;;;0.50;0.50;;;10.10;70.90;;;;;;5085578;28;20024;-73
2024/01/05 00:20:23;;;;;;;0.60;0.60;;;10.00;70.90;;;;;;5055862;28;20534;-73
2024/01/05 00:22:49;;;;;;;0.70;0.70;;;10.10;70.90;;;;;;5077286;28;20155;-74
2024/01/05 00:25:16;;;;;;;0.55;0.55;;;10.10;71.00;;;;;;5069899;28;20353;-74
2024/01/05 00:27:42;;;;;;;0.82;0.82;;;10.10;71.00;;;;;;5079829;28;20032;-73
2024/01/05 00:30:08;;;;;;;0.50;0.50;;;10.10;71.10;;;;;;5076188;28;20047;-74
2024/01/05 00:32:33;;;;;;;0.70;0.70;;;10.20;71.10;;;;;;5086377;28;20020;-73
2024/01/05 00:34:59;;;;;;;4.60;1.08;;;10.20;71.10;;;;;;5073932;28;20106;-74
2024/01/05 00:37:24;;;;;;;0.45;0.45;;;10.20;71.10;;;;;;5082742;28;20021;-74
2024/01/05 00:39:50;;;;;;;0.60;0.60;;;10.20;71.10;;;;;;5069128;28;20036;-71
2024/01/05 00:42:16;;;;;;;0.60;0.60;;;10.20;71.10;;;;;;5083837;28;20029;-75
2024/01/05 00:44:41;;;;;;;0.40;0.40;;;10.20;71.10;;;;;;5068400;28;20230;-72
2024/01/05 00:47:07;;;;;;;0.60;0.60;;;10.20;71.10;;;;;;5077950;28;20503;-73
2024/01/05 00:49:32;;;;;;;1.15;1.15;;;10.30;71.10;;;;;;5061795;28;20032;-72
2024/01/05 00:51:58;;;;;;;0.40;0.40;;;10.30;71.00;;;;;;5058994;28;20055;-73
2024/01/05 00:54:25;;;;;;;0.50;0.50;;;10.30;71.00;;;;;;5074873;28;20135;-73
2024/01/05 00:56:50;;;;;;;0.80;0.80;;;10.30;71.10;;;;;;5086107;28;20020;-73
2024/01/05 00:59:19;;;;;;;0.60;0.60;;;10.30;71.00;;;;;;5075542;28;20141;-73
2024/01/05 01:01:44;;;;;;;0.95;0.82;;;10.30;71.00;;;;;;5077933;28;20043;-74
2024/01/05 01:04:10;;;;;;;0.50;0.50;;;10.30;71.00;;;;;;5083408;28;20043;-74
2024/01/05 01:06:36;;;;;;;0.65;0.65;;;10.30;71.00;;;;;;5053880;28;20462;-73
2024/01/05 01:09:01;;;;;;;0.50;0.50;;;10.30;71.10;;;;;;5080096;28;20388;-73
2024/01/05 01:11:27;;;;;;;0.60;0.60;;;10.30;71.00;;;;;;5064669;28;20084;-73
2024/01/05 01:13:53;;;;;;;0.60;0.60;;;10.40;71.00;;;;;;5087920;28;20050;-73
2024/01/05 01:16:19;;;;;;;0.50;0.50;;;10.30;70.90;;;;;;5086824;28;20024;-74
2024/01/05 01:18:44;;;;;;;0.80;0.80;;;10.30;70.90;;;;;;5051973;28;20329;-73
2024/01/05 01:21:10;;;;;;;0.80;0.80;;;10.30;70.90;;;;;;5073528;28;20032;-73
2024/01/05 01:23:35;;;;;;;0.40;0.40;;;10.30;71.00;;;;;;5061337;28;20085;-74
2024/01/05 01:26:01;;;;;;;0.90;0.85;;;10.30;71.00;;;;;;5081365;28;20048;-74
2024/01/05 01:28:27;;;;;;;2.92;1.38;;;10.30;70.90;;;;;;5061312;28;20028;-74
2024/01/05 01:30:53;;;;;;;0.70;0.70;;;10.30;71.00;;;;;;5061424;28;20131;-73
2024/01/05 01:33:19;;;;;;;0.60;0.60;;;10.30;71.00;;;;;;5081161;28;20020;-73
2024/01/05 01:35:44;;;;;;;1.08;1.05;;;10.30;71.00;;;;;;5080509;28;20024;-74
2024/01/05 01:38:10;;;;;;;0.63;0.63;;;10.30;71.10;;;;;;5088330;28;20210;-74
2024/01/05 01:40:35;;;;;;;0.60;0.60;;;10.30;71.10;;;;;;5053473;28;20032;-74
2024/01/05 01:43:01;;;;;;;1.00;0.82;;;10.30;70.90;;;;;;5068965;28;20036;-74
2024/01/05 01:45:26;;;;;;;0.57;0.57;;;10.30;71.00;;;;;;5080997;28;20040;-74
2024/01/05 01:47:52;;;;;;;0.50;0.50;;;10.20;71.00;;;;;;5068662;28;20036;-76
2024/01/05 01:50:19;;;;;;;0.70;0.70;;;10.20;71.10;;;;;;5083309;28;20119;-75
2024/01/05 01:52:46;;;;;;;0.57;0.57;;;10.30;71.20;;;;;;5086459;28;20509;-75
2024/01/05 01:55:14;;;;;;;0.65;0.65;;;10.20;71.30;;;;;;5082409;28;20055;-75
2024/01/05 01:57:40;;;;;;;0.55;0.55;;;10.20;71.20;;;;;;5077332;28;20418;-75
2024/01/05 02:00:06;;;;;;;1.40;1.30;;;10.20;71.20;;;;;;5074726;28;20039;-74
2024/01/05 02:02:33;;;;;;;0.50;0.50;;;10.20;71.20;;;;;;5083898;28;20026;-74
2024/01/05 02:04:59;;;;;;;0.60;0.60;;;10.20;71.30;;;;;;5071955;28;20034;-76
2024/01/05 02:07:25;;;;;;;0.70;0.70;;;10.20;71.40;;;;;;5070070;28;20476;-74
2024/01/05 02:09:51;;;;;;;3.92;0.88;;;10.30;71.40;;;;;;5065522;28;20062;-75
2024/01/05 02:12:17;;;;;;;0.40;0.40;;;10.30;71.40;;;;;;5087876;28;20039;-74
2024/01/05 02:14:43;;;;;;;0.50;0.50;;;10.30;71.30;;;;;;5085208;28;20044;-76
2024/01/05 02:17:28;;;;;;;0.70;0.70;;;10.30;71.30;;;;;;5076386;28;20483;-75
2024/01/05 02:19:54;;;;;;;0.50;0.50;;;10.30;71.40;;;;;;5086585;28;20457;-74
2024/01/05 02:22:22;;;;;;;0.50;0.50;;;10.30;71.40;;;;;;5072493;28;20028;-74
2024/01/05 02:24:48;;;;;;;0.50;0.50;;;10.30;71.60;;;;;;5081584;28;20471;-75
2024/01/05 02:27:13;;;;;;;0.40;0.40;;;10.40;71.50;;;;;;5082531;28;20141;-75
2024/01/05 02:29:39;;;;;;;0.50;0.50;;;10.30;71.30;;;;;;5071930;28;20067;-74
2024/01/05 02:32:04;;;;;;;0.60;0.60;;;10.30;71.30;;;;;;5062269;28;20140;-75
2024/01/05 02:34:30;;;;;;;0.63;0.63;;;10.30;71.30;;;;;;5084835;28;20257;-75
2024/01/05 02:36:55;;;;;;;0.55;0.55;;;10.30;71.40;;;;;;5050998;28;20078;-75
2024/01/05 02:39:21;;;;;;;0.60;0.60;;;10.30;71.30;;;;;;5069588;28;20060;-75
2024/01/05 02:41:46;;;;;;;0.82;0.82;;;10.30;71.30;;;;;;5071177;28;20034;-74
2024/01/05 02:44:12;;;;;;;0.50;0.50;;;10.30;71.40;;;;;;5057953;28;20024;-74
2024/01/05 02:46:37;;;;;;;0.85;0.85;;;10.30;71.30;;;;;;5080989;28;20036;-75
2024/01/05 02:49:03;;;;;;;0.50;0.50;;;10.30;71.30;;;;;;5071894;28;20441;-76
2024/01/05 02:51:29;;;;;;;0.50;0.50;;;10.30;71.40;;;;;;5083752;28;20040;-75
2024/01/05 02:53:55;;;;;;;0.90;0.90;;;10.30;71.40;;;;;;5077593;28;20028;-75
2024/01/05 02:56:22;;;;;;;0.60;0.60;;;10.30;71.40;;;;;;5053296;28;20037;-75
2024/01/05 02:58:48;;;;;;;0.50;0.50;;;10.30;71.40;;;;;;5083333;28;20038;-74
2024/01/05 03:01:17;;;;;;;1.02;1.02;;;10.30;71.30;;;;;;5054403;28;20032;-74
2024/01/05 03:03:47;;;;;;;0.45;0.45;;;10.30;71.30;;;;;;5076788;28;20036;-74
2024/01/05 03:06:16;;;;;;;0.60;0.60;;;10.30;71.40;;;;;;5063743;28;20032;-74
2024/01/05 03:08:43;;;;;;;0.50;0.50;;;10.30;71.40;;;;;;5084350;28;20045;-74
2024/01/05 03:11:09;;;;;;;0.40;0.40;;;10.30;71.30;;;;;;5080741;28;20024;-74
2024/01/05 03:13:34;;;;;;;0.50;0.50;;;10.30;71.40;;;;;;5057919;28;20391;-73
2024/01/05 03:16:00;;;;;;;0.50;0.50;;;10.30;71.30;;;;;;5079737;28;20028;-74
2024/01/05 03:18:26;;;;;;;0.75;0.75;;;10.30;71.30;;;;;;5064020;28;20035;-74
2024/01/05 03:20:51;;;;;;;0.55;0.55;;;10.30;71.40;;;;;;5070135;28;20032;-74
2024/01/05 03:23:17;;;;;;;0.60;0.60;;;10.30;71.40;;;;;;5077499;28;20028;-74
2024/01/05 03:25:44;;;;;;;1.42;1.33;;;10.30;71.40;;;;;;5080733;28;20097;-73
2024/01/05 03:28:12;;;;;;;0.60;0.60;;;10.30;71.40;;;;;;5080230;28;20681;-79
2024/01/05 03:30:38;;;;;;;0.57;0.57;;;10.30;71.30;;;;;;5063979;28;20126;-78
2024/01/05 03:33:04;;;;;;;0.57;0.57;;;10.30;71.50;;;;;;5084424;28;20206;-77
2024/01/05 03:35:30;;;;;;;0.60;0.60;;;10.30;71.50;;;;;;5078459;28;20281;-78
2024/01/05 03:37:56;;;;;;;0.80;0.80;;;10.40;71.50;;;;;;5069285;28;20055;-76
2024/01/05 03:40:22;;;;;;;0.50;0.50;;;10.40;71.40;;;;;;5081699;28;20040;-73
2024/01/05 03:42:47;;;;;;;0.70;0.70;;;10.40;71.30;;;;;;5059803;28;20060;-73
2024/01/05 03:45:13;;;;;;;0.70;0.70;;;10.40;71.10;;;;;;5081124;28;20487;-73
2024/01/05 03:47:38;;;;;;;0.50;0.50;;;10.30;70.80;;;;;;5082840;28;20028;-73
2024/01/05 03:50:04;;;;;;;0.57;0.57;;;10.30;70.60;;;;;;5081533;28;20039;-72
2024/01/05 03:52:30;;;;;;;0.50;0.50;;;10.20;70.40;;;;;;5082911;28;20028;-73
2024/01/05 03:54:56;;;;;;;1.67;0.93;;;10.10;70.40;;;;;;5082213;28;20043;-74
2024/01/05 03:57:21;;;;;;;0.68;0.68;;;10.10;70.30;;;;;;5073179;28;20066;-73
2024/01/05 03:59:47;;;;;;;0.50;0.50;;;10.00;70.20;;;;;;5075365;28;20471;-73
2024/01/05 04:02:12;;;;;;;0.60;0.60;;;9.90;70.00;;;;;;5060978;28;20035;-72
2024/01/05 04:04:39;;;;;;;0.50;0.50;;;9.80;70.00;;;;;;5056998;28;20491;-73
2024/01/05 04:07:05;;;;;;;0.55;0.55;;;9.80;70.10;;;;;;5052190;28;20035;-73
2024/01/05 04:09:31;;;;;;;0.60;0.60;;;9.80;70.20;;;;;;5052003;28;20040;-72
2024/01/05 04:11:57;;;;;;;0.73;0.73;;;9.70;70.10;;;;;;5077449;28;20012;-74
2024/01/05 04:14:23;;;;;;;1.13;1.05;;;9.60;70.00;;;;;;5074514;28;20017;-73
2024/01/05 04:16:48;;;;;;;0.50;0.50;;;9.60;70.00;;;;;;5063985;28;20035;-75
2024/01/05 04:19:15;;;;;;;0.55;0.55;;;9.60;70.00;;;;;;5051551;28;20499;-73
2024/01/05 04:21:41;;;;;;;0.50;0.50;;;9.50;69.70;;;;;;5051686;28;20028;-73
2024/01/05 04:24:07;;;;;;;0.50;0.50;;;9.50;69.50;;;;;;5070890;28;20029;-73
2024/01/05 04:26:33;;;;;;;0.50;0.50;;;9.50;69.40;;;;;;5081934;28;20028;-72
2024/01/05 04:28:58;;;;;;;0.55;0.55;;;9.40;69.40;;;;;;5069015;28;20024;-72
2024/01/05 04:31:24;;;;;;;0.50;0.50;;;9.40;69.70;;;;;;5085192;28;20056;-73
2024/01/05 04:33:49;;;;;;;0.60;0.60;;;9.40;70.00;;;;;;5074750;28;20353;-73
2024/01/05 04:36:15;;;;;;;0.60;0.60;;;9.40;70.20;;;;;;5070142;28;20036;-73
2024/01/05 04:38:41;;;;;;;0.50;0.50;;;9.40;70.20;;;;;;5069036;28;20032;-73
2024/01/05 04:41:07;;;;;;;0.50;0.50;;;9.40;70.40;;;;;;5082175;28;20039;-73
2024/01/05 04:43:33;;;;;;;0.60;0.60;;;9.50;70.90;;;;;;5076890;28;20028;-72
2024/01/05 04:46:00;;;;;;;0.50;0.50;;;9.60;71.30;;;;;;5078363;28;20111;-73
2024/01/05 04:48:25;;;;;;;0.50;0.50;;;9.70;71.50;;;;;;5070651;28;20071;-73
2024/01/05 04:50:51;;;;;;;0.50;0.50;;;9.80;71.60;;;;;;5069845;28;20520;-73
2024/01/05 04:53:16;;;;;;;0.55;0.55;;;9.90;71.60;;;;;;5069248;28;20033;-72
2024/01/05 04:55:42;;;;;;;0.60;0.60;;;9.90;71.70;;;;;;5076428;28;20032;-72
2024/01/05 04:58:08;;;;;;;0.50;0.50;;;10.00;71.70;;;;;;5075536;28;20074;-71
2024/01/05 05:00:33;;;;;;;0.65;0.65;;;10.10;71.70;;;;;;5086030;28;20423;-72
2024/01/05 05:02:59;;;;;;;0.50;0.50;;;10.20;71.70;;;;;;5073211;28;20024;-73
2024/01/05 05:05:25;;;;;;;0.50;0.50;;;10.20;71.70;;;;;;5081954;28;20071;-72
2024/01/05 05:07:52;;;;;;;0.50;0.50;;;10.30;71.60;;;;;;5078325;28;20024;-71
2024/01/05 05:10:18;;;;;;;0.60;0.60;;;10.30;71.60;;;;;;5084260;28;20426;-72
2024/01/05 05:12:43;;;;;;;0.50;0.50;;;10.40;71.60;;;;;;5085328;28;20461;-72
2024/01/05 05:15:10;;;;;;;0.50;0.50;;;10.40;71.50;;;;;;5083289;28;20112;-72
2024/01/05 05:17:36;;;;;;;0.60;0.60;;;10.40;71.50;;;;;;5078942;28;20476;-71
2024/01/05 05:20:03;;;;;;;0.60;0.60;;;10.50;71.50;;;;;;5063634;28;20428;-73
2024/01/05 05:22:28;;;;;;;0.50;0.50;;;10.50;71.60;;;;;;5072647;28;20433;-72
2024/01/05 05:24:54;;;;;;;0.60;0.60;;;10.50;71.50;;;;;;5085399;28;20500;-72
2024/01/05 05:27:20;;;;;;;0.50;0.50;;;10.60;71.50;;;;;;5075862;28;20413;-72
2024/01/05 05:29:47;;;;;;;1.25;1.15;;;10.60;71.50;;;;;;5084308;28;20124;-72
2024/01/05 05:32:12;;;;;;;0.60;0.60;;;10.60;71.50;;;;;;5057589;28;20103;-73
2024/01/05 05:34:38;;;;;;;0.82;0.82;;;10.60;71.50;;;;;;5084377;28;20179;-72
2024/01/05 05:37:04;;;;;;;1.25;1.15;;;10.60;71.50;;;;;;5079602;28;20081;-72
2024/01/05 05:39:29;;;;;;;0.77;0.77;;;10.60;71.40;;;;;;5075143;28;20036;-73
2024/01/05 05:41:55;;;;;;;2.13;1.00;;;10.60;71.30;;;;;;5087237;28;20035;-73
2024/01/05 05:44:20;;;;;;;0.82;0.82;;;10.60;71.20;;;;;;5054881;28;20063;-72
2024/01/05 05:46:46;;;;;;;0.70;0.70;;;10.60;71.20;;;;;;5066925;28;20024;-72
2024/01/05 05:49:11;;;;;;;0.50;0.50;;;10.60;71.20;;;;;;5072662;28;20450;-72
2024/01/05 05:51:37;;;;;;;0.50;0.50;;;10.60;71.20;;;;;;5084164;28;20154;-72
2024/01/05 05:54:02;;;;;;;0.60;0.60;;;10.60;71.00;;;;;;5081178;28;20077;-73
2024/01/05 05:56:28;;;;;;;0.50;0.50;;;10.60;70.80;;;;;;5080627;28;20039;-73
2024/01/05 05:58:53;;;;;;;0.50;0.50;;;10.50;70.80;;;;;;5071397;28;20024;-72
2024/01/05 06:01:19;;;;;;;5.28;1.23;;;10.50;70.90;;;;;;5082038;28;20029;-72
2024/01/05 06:03:44;;;;;;;0.88;0.88;;;10.50;70.60;;;;;;5078290;28;20032;-72
2024/01/05 06:06:18;;;;;;;0.50;0.50;;;10.50;70.40;;;;;;5074710;28;20039;-72
2024/01/05 06:08:44;;;;;;;0.50;0.50;;;10.30;70.30;;;;;;5077770;28;20302;-73
2024/01/05 06:11:12;;;;;;;0.50;0.50;;;10.30;70.50;;;;;;5064860;28;20035;-72
2024/01/05 06:13:37;;;;;;;0.65;0.65;;;10.30;70.50;;;;;;5076882;28;20043;-73
2024/01/05 06:16:03;;;;;;;0.60;0.60;;;10.30;70.50;;;;;;5079590;28;20487;-72
2024/01/05 06:18:29;;;;;;;0.60;0.60;;;10.30;70.40;;;;;;5059795;28;20028;-73
2024/01/05 06:20:54;;;;;;;0.50;0.50;;;10.20;70.20;;;;;;5077143;28;20028;-73
2024/01/05 06:23:20;;;;;;;0.55;0.55;;;10.20;70.00;;;;;;5077458;28;20028;-73
2024/01/05 06:25:45;;;;;;;0.90;0.90;;;10.10;69.80;;;;;;5082229;28;20391;-73
2024/01/05 06:28:11;;;;;;;0.50;0.50;;;10.10;69.90;;;;;;5057246;28;20075;-72
2024/01/05 06:30:36;;;;;;;0.60;0.60;;;10.10;70.20;;;;;;5080681;28;20036;-73
2024/01/05 06:33:02;;;;;;;0.50;0.50;;;10.20;70.60;;;;;;5079178;28;20150;-71
2024/01/05 06:35:27;;;;;;;0.50;0.50;;;10.20;70.80;;;;;;5077916;28;20404;-71
2024/01/05 06:37:53;;;;;;;0.52;0.52;;;10.20;70.90;;;;;;5076543;28;20065;-71
2024/01/05 06:40:18;;;;;;;1.52;0.88;;;10.30;71.00;;;;;;5074268;28;20035;-72
2024/01/05 06:42:45;;;;;;;0.50;0.50;;;10.40;71.10;;;;;;5078719;28;20064;-72
2024/01/05 06:45:10;;;;;;;0.60;0.60;;;10.40;71.20;;;;;;5081926;28;20487;-72
2024/01/05 06:47:36;;;;;;;0.45;0.45;;;10.50;71.20;;;;;;5081992;28;20116;-71
2024/01/05 06:50:02;;;;;;;0.60;0.60;;;10.50;71.10;;;;;;5075695;28;20391;-72
2024/01/05 06:52:27;;;;;;;0.57;0.57;;;10.60;71.00;;;;;;5060426;28;20444;-72
2024/01/05 06:54:53;;;;;;;0.52;0.52;;;10.50;70.90;;;;;;5084149;28;20023;-72
2024/01/05 06:57:18;;;;;;;0.50;0.50;;;10.50;70.90;;;;;;5083438;28;20042;-73
2024/01/05 06:59:44;;;;;;;0.60;0.60;;;10.60;71.00;;;;;;5082249;28;20828;-72
2024/01/05 07:02:10;;;;;;;0.60;0.60;;;10.60;71.10;;;;;;5073089;28;20021;-72
2024/01/05 07:04:36;;;;;;;0.40;0.40;;;10.70;71.20;;;;;;5067705;28;20036;-71
2024/01/05 07:07:02;;;;;;;0.57;0.57;;;10.70;71.30;;;;;;5082309;28;20024;-71
2024/01/05 07:09:27;;;;;;;0.60;0.60;;;10.70;71.40;;;;;;5058225;28;20340;-72
2024/01/05 07:11:53;;;;;;;0.45;0.45;;;10.80;71.40;;;;;;5075317;28;20039;-71
2024/01/05 07:14:18;;;;;;;0.50;0.50;;;10.90;71.50;;;;;;5059676;28;20024;-72
2024/01/05 07:16:44;;;;;;;0.50;0.50;;;11.00;71.50;;;;;;5069950;28;20024;-71
2024/01/05 07:19:09;;;;;;;0.80;0.80;;;11.00;71.50;;;;;;5079996;28;20032;-70
2024/01/05 07:21:43;;;;;;;0.60;0.60;;;11.10;71.40;;;;;;5077713;28;20032;-72
2024/01/05 07:24:09;;;;;;;0.50;0.50;;;11.10;71.40;;;;;;5078570;28;20463;-72
2024/01/05 07:26:35;;;;;;;0.50;0.50;;;11.20;71.50;;;;;;5072298;28;20020;-72
2024/01/05 07:29:01;;;;;;;0.50;0.50;;;11.20;71.50;;;;;;5061275;28;20025;-72
2024/01/05 07:31:27;;;;;;;0.50;0.50;;;11.30;71.50;;;;;;5082697;28;20028;-72
2024/01/05 07:33:53;;;;;;;0.93;0.93;;;11.30;71.60;;;;;;5083767;28;20024;-71
2024/01/05 07:36:18;;;;;;;0.50;0.50;;;11.30;71.50;;;;;;5084928;28;20260;-72
2024/01/05 07:38:44;;;;;;;2.83;1.00;;;11.40;71.50;;;;;;5083215;28;20637;-73
2024/01/05 07:41:15;;;;;;;0.47;0.47;;;11.40;71.50;;;;;;5063086;28;20119;-72
2024/01/05 07:43:41;;;;;;;0.70;0.70;;;11.40;71.50;;;;;;5079789;28;20032;-72
2024/01/05 07:46:07;;;;;;;1.13;1.02;;;11.50;71.50;;;;;;5072969;28;20046;-72
2024/01/05 07:48:32;;;;;;;0.60;0.60;;;11.50;71.40;;;;;;5054608;28;20032;-71
2024/01/05 07:51:01;;;;;;;0.80;0.80;;;11.60;71.50;;;;;;5082385;28;20044;-73
2024/01/05 07:53:28;;;;;;;0.45;0.45;;;11.60;71.50;;;;;;5073785;28;20020;-74
2024/01/05 07:55:54;;;;;;;0.60;0.60;;;11.70;71.60;;;;;;5074640;28;20037;-71
2024/01/05 07:58:19;;;;;;;0.50;0.50;;;11.70;71.50;;;;;;5080415;28;20038;-71
2024/01/05 08:00:45;;;;;;;0.60;0.60;;;11.70;71.50;;;;;;5076276;28;20134;-72
2024/01/05 08:03:11;;;;;;;0.70;0.70;;;11.70;71.40;;;;;;5071697;28;20024;-72
2024/01/05 08:05:37;;;;;;;0.60;0.60;;;11.80;71.50;;;;;;5058679;28;20033;-73
2024/01/05 08:08:03;;;;;;;0.88;0.88;;;11.80;71.40;;;;;;5078952;28;20472;-73
2024/01/05 08:10:30;;;;;;;1.02;1.02;;;11.80;71.40;;;;;;5069703;28;20037;-73
2024/01/05 08:12:55;;;;;;;0.50;0.50;;;11.80;71.40;;;;;;5069252;28;20059;-74
2024/01/05 08:15:21;;;;;;;0.60;0.60;;;11.80;71.40;;;;;;5084220;28;20308;-74
2024/01/05 08:17:46;;;;;;;0.47;0.47;;;11.90;71.40;;;;;;5062609;28;20066;-73
2024/01/05 08:20:12;;;;;;;0.50;0.50;;;11.90;71.40;;;;;;5071645;28;20561;-76
2024/01/05 08:22:38;;;;;;;0.60;0.60;;;11.90;71.50;;;;;;5075985;28;20027;-77
2024/01/05 08:25:03;;;;;;;0.90;0.90;;;11.90;71.40;;;;;;5074971;28;20031;-77
2024/01/05 08:27:29;;;;;;;0.50;0.50;;;11.90;71.40;;;;;;5076601;28;20048;-77
2024/01/05 08:29:55;;;;;;;0.50;0.50;;;12.00;71.50;;;;;;5071317;28;20044;-77
2024/01/05 08:32:21;;;;;;;0.50;0.50;;;12.00;71.50;;;;;;5084733;28;20031;-76
2024/01/05 08:34:46;;;;;;;0.55;0.55;;;12.10;71.50;;;;;;5089621;28;20040;-77
2024/01/05 08:37:12;;;;;;;0.52;0.52;;;12.10;71.50;;;;;;5076700;28;20020;-75
2024/01/05 08:39:41;;;;;;;0.40;0.40;;;12.10;71.40;;;;;;5063361;28;20412;-76
2024/01/05 08:42:07;;;;;;;0.50;0.50;;;12.10;71.40;;;;;;5076634;28;20055;-75
2024/01/05 08:44:34;;;;;;;0.60;0.60;;;12.20;71.60;;;;;;5076351;28;20479;-77
2024/01/05 08:47:00;;;;;;;0.50;0.50;;;12.30;71.80;;;;;;5089198;28;20024;-76
2024/01/05 08:49:26;;;;;;;0.50;0.50;;;12.40;72.30;;;;;;5080833;28;20033;-76
2024/01/05 08:51:52;;;;;;;0.50;0.50;;;12.60;72.50;;;;;;5087183;28;20067;-77
2024/01/05 08:54:18;;;;;;;1.33;1.23;;;12.80;72.70;;;;;;5090812;28;20278;-77
2024/01/05 08:56:44;;;;;;;0.50;0.50;;;13.10;73.50;;;;;;5090127;28;20324;-77
2024/01/05 08:59:10;;;;;;;0.60;0.60;;;13.50;74.10;;;;;;5078905;28;20022;-77
2024/01/05 09:01:37;;;;;;;0.50;0.50;;;14.00;74.80;;;;;;5086656;28;20024;-76
2024/01/05 09:04:03;;;;;;;0.50;0.50;;;14.50;75.30;;;;;;5093831;28;20040;-77
2024/01/05 09:06:31;;;;;;;0.50;0.50;;;15.10;75.50;;;;;;5070355;28;20488;-76
2024/01/05 09:08:57;;;;;;;0.60;0.60;;;15.50;74.90;;;;;;5082079;28;20020;-76
2024/01/05 09:11:22;;;;;;;0.50;0.50;;;15.70;73.70;;;;;;5093161;28;20130;-76
2024/01/05 09:13:48;;;;;;;0.60;0.60;;;15.70;72.80;;;;;;5095391;28;20043;-76
2024/01/05 09:16:13;;;;;;;0.75;0.75;;;15.60;72.30;;;;;;5096495;28;20036;-76
2024/01/05 09:18:39;;;;;;;0.52;0.52;;;15.40;71.70;;;;;;5103395;28;20488;-75
2024/01/05 09:21:07;;;;;;;0.80;0.80;;;15.30;71.20;;;;;;5091412;28;20032;-75
2024/01/05 09:23:32;;;;;;;0.50;0.50;;;15.10;71.10;;;;;;5100159;28;20016;-76
2024/01/05 09:25:58;;;;;;;1.25;1.20;;;15.00;71.30;;;;;;5082977;28;20047;-75
2024/01/05 09:28:24;;;;;;;0.55;0.55;;;14.90;71.30;;;;;;5091945;28;20131;-76
2024/01/05 09:30:49;;;;;;;0.50;0.50;;;14.80;71.30;;;;;;5096526;28;20107;-74
2024/01/05 09:33:16;;;;;;;0.90;0.90;;;14.70;71.00;;;;;;5069800;28;20028;-74
2024/01/05 09:35:42;;;;;;;0.60;0.60;;;14.60;71.00;;;;;;5078680;28;20487;-74
2024/01/05 09:38:07;;;;;;;0.50;0.50;;;14.50;70.60;;;;;;5076764;28;20025;-74
2024/01/05 09:40:34;;;;;;;0.60;0.60;;;14.30;70.90;;;;;;5071374;28;20166;-73
2024/01/05 09:43:02;;;;;;;1.02;0.63;;;14.30;70.90;;;;;;5095250;28;20018;-74
2024/01/05 09:45:28;;;;;;;0.60;0.60;;;14.20;70.90;;;;;;5080605;28;20459;-73
2024/01/05 09:47:57;;;;;;;1.13;1.00;;;14.10;70.60;;;;;;5079765;28;20051;-74
2024/01/05 09:50:23;;;;;;;1.23;0.93;;;14.00;71.00;;;;;;5083767;28;20523;-75
2024/01/05 09:52:49;;;;;;;0.50;0.50;;;13.90;71.00;;;;;;5071300;28;20024;-74
2024/01/05 09:55:14;;;;;;;0.50;0.50;;;13.90;71.00;;;;;;5081566;28;20705;-74
2024/01/05 09:57:41;;;;;;;0.50;0.50;;;13.80;70.90;;;;;;5056147;28;20016;-73
2024/01/05 10:00:09;;;;;;;0.60;0.60;;;13.80;71.00;;;;;;5081462;28;20408;-72
2024/01/05 10:02:54;;;;;;;0.60;0.60;;;13.70;71.20;;;;;;5053257;28;20060;-74
2024/01/05 10:05:20;;;;;;;0.50;0.50;;;13.70;71.50;;;;;;5074795;28;20126;-73
2024/01/05 10:07:45;;;;;;;0.70;0.70;;;13.80;71.70;;;;;;5077486;28;20104;-73
2024/01/05 10:10:12;;;;;;;0.50;0.50;;;13.80;71.50;;;;;;5073531;28;20029;-73
2024/01/05 10:12:39;;;;;;;0.50;0.50;;;13.80;71.40;;;;;;5066487;28;20429;-72
2024/01/05 10:15:06;;;;;;;0.50;0.50;;;13.80;71.50;;;;;;5072435;28;20020;-72
2024/01/05 10:17:33;;;;;;;0.95;0.95;;;13.80;71.40;;;;;;5079456;28;20494;-73
2024/01/05 10:20:13;;;;;;;0.60;0.60;;;13.80;71.70;;;;;;5061728;28;20415;-73
2024/01/05 10:22:39;;;;;;;0.50;0.50;;;13.80;71.60;;;;;;5071488;28;20020;-74
2024/01/05 10:25:16;;;;;;;0.70;0.70;;;13.80;71.60;;;;;;5082758;28;20037;-73
2024/01/05 10:27:42;;;;;;;0.80;0.80;;;13.90;71.80;;;;;;5059823;28;20487;-73
2024/01/05 10:30:10;;;;;;;0.60;0.60;;;13.90;71.80;;;;;;5073965;28;20146;-73
2024/01/05 10:32:36;;;;;;;0.60;0.60;;;14.00;71.50;;;;;;5066298;28;20145;-73
2024/01/05 10:35:03;;;;;;;0.50;0.50;;;13.90;71.40;;;;;;5071353;28;20049;-73
2024/01/05 10:37:29;;;;;;;0.50;0.50;;;13.90;71.40;;;;;;5079340;28;20021;-73
2024/01/05 10:39:56;;;;;;;0.60;0.60;;;14.00;71.20;;;;;;5080080;28;20475;-75
2024/01/05 10:42:26;;;;;;;0.50;0.50;;;14.00;71.40;;;;;;5118489;28;20026;-76
2024/01/05 10:44:54;;;;;;;0.55;0.55;;;14.00;71.40;;;;;;5109559;28;20069;-76
2024/01/05 10:47:21;;;;;;;0.50;0.50;;;14.10;71.60;;;;;;5099227;28;20058;-76
2024/01/05 10:49:50;;;;;;;0.50;0.50;;;14.10;71.60;;;;;;5103001;28;20008;-76
2024/01/05 10:52:16;;;;;;;0.60;0.60;;;14.20;71.50;;;;;;5102689;28;20016;-76
2024/01/05 10:54:48;;;;;;;0.60;0.60;;;14.20;71.70;;;;;;5100936;28;20048;-77
2024/01/05 10:57:15;;;;;;;0.60;0.60;;;14.30;71.40;;;;;;5083017;28;20019;-76
2024/01/05 10:59:48;;;;;;;0.40;0.40;;;14.30;71.20;;;;;;5098184;28;20021;-76
2024/01/05 11:02:31;;;;;;;0.73;0.73;;;14.30;71.70;;;;;;5106592;28;20032;-76
2024/01/05 11:05:08;;;;;;;0.70;0.70;;;14.40;71.50;;;;;;5078005;28;20035;-76
2024/01/05 11:07:35;;;;;;;0.55;0.55;;;14.40;71.70;;;;;;5103746;28;20038;-76
2024/01/05 11:10:27;;;;;;;0.50;0.50;;;14.40;71.30;;;;;;5104944;28;20039;-76
2024/01/05 11:13:22;;;;;;;0.47;0.47;;;14.40;71.00;;;;;;5094623;28;20011;-76
2024/01/05 11:15:56;;;;;;;0.60;0.60;;;14.40;70.70;;;;;;5104331;28;20016;-76
2024/01/05 11:18:49;;;;;;;0.50;0.50;;;14.30;70.70;;;;;;5078945;28;20020;-76
2024/01/05 11:21:22;;;;;;;0.82;0.82;;;14.30;70.70;;;;;;5057986;28;20051;-72
2024/01/05 11:23:49;;;;;;;0.50;0.50;;;14.20;70.60;;;;;;5083916;28;20004;-77
2024/01/05 11:26:36;;;;;;;0.50;0.50;;;14.10;70.60;;;;;;5098584;28;20210;-76
2024/01/05 11:29:02;;;;;;;1.40;0.90;;;14.10;70.60;;;;;;5096846;28;20076;-76
2024/01/05 11:31:46;;;;;;;0.52;0.52;;;14.10;70.60;;;;;;5087235;28;20033;-76
2024/01/05 11:34:35;;;;;;;0.68;0.68;;;14.00;70.70;;;;;;5106196;28;20020;-76
2024/01/05 11:37:01;;;;;;;0.50;0.50;;;14.00;70.80;;;;;;5079514;28;20012;-76
2024/01/05 11:39:45;;;;;;;1.13;1.05;;;14.10;71.30;;;;;;5102970;28;20051;-77
2024/01/05 11:42:33;;;;;;;0.50;0.50;;;14.10;71.30;;;;;;5098177;28;20010;-76
2024/01/05 11:45:00;;;;;;;0.50;0.50;;;14.20;71.30;;;;;;5104135;28;20024;-76
2024/01/05 11:47:46;;;;;;;0.50;0.50;;;14.30;71.40;;;;;;5100583;28;20020;-76
2024/01/05 11:50:26;;;;;;;0.57;0.57;;;14.30;71.20;;;;;;5097666;28;20098;-77
2024/01/05 11:53:10;;;;;;;0.60;0.60;;;14.30;71.10;;;;;;5109216;28;20009;-76
2024/01/05 11:55:40;;;;;;;0.50;0.50;;;14.30;70.60;;;;;;5095819;28;20078;-76
2024/01/05 11:58:17;;;;;;;0.50;0.50;;;14.30;70.50;;;;;;5087152;28;20035;-76
2024/01/05 12:00:44;;;;;;;0.43;0.43;;;14.30;70.80;;;;;;5095680;28;20013;-75
2024/01/05 12:03:10;;;;;;;1.73;1.63;;;14.30;70.30;;;;;;5105845;28;20086;-76
2024/01/05 12:05:38;;;;;;;0.50;0.50;;;14.30;70.30;;;;;;5100767;28;20020;-76
2024/01/05 12:08:04;;;;;;;0.90;0.75;;;14.30;70.60;;;;;;5098464;28;20021;-76
2024/01/05 12:10:31;;;;;;;0.70;0.70;;;14.30;70.90;;;;;;5090705;28;20047;-76
2024/01/05 12:12:57;;;;;;;0.50;0.50;;;14.50;70.50;;;;;;5094642;28;20092;-76
2024/01/05 12:15:23;;;;;;;0.55;0.55;;;14.50;70.60;;;;;;5104438;28;20081;-77
2024/01/05 12:17:49;;;;;;;0.60;0.60;;;14.50;71.00;;;;;;5107067;28;20024;-76
2024/01/05 12:20:15;;;;;;;0.50;0.50;;;14.60;71.40;;;;;;5077840;28;20024;-76
2024/01/05 12:22:42;;;;;;;0.50;0.50;;;14.80;71.20;;;;;;5081696;28;20043;-76
2024/01/05 12:25:07;;;;;;;0.60;0.60;;;14.80;71.60;;;;;;5095210;28;20055;-77
2024/01/05 12:27:40;;;;;;;1.45;1.35;;;14.90;71.60;;;;;;5098611;28;20020;-76
2024/01/05 12:30:07;;;;;;;0.52;0.52;;;14.90;71.40;;;;;;5075931;28;20032;-76
2024/01/05 12:32:33;;;;;;;0.50;0.50;;;15.00;71.30;;;;;;5095716;28;20328;-76
2024/01/05 12:35:00;;;;;;;0.55;0.55;;;15.00;71.40;;;;;;5103787;28;20021;-76
2024/01/05 12:37:25;;;;;;;0.50;0.50;;;15.00;71.50;;;;;;5094866;28;20294;-76
2024/01/05 12:39:51;;;;;;;0.52;0.52;;;14.90;71.10;;;;;;5103742;28;20091;-76
2024/01/05 12:42:17;;;;;;;0.50;0.50;;;15.00;70.90;;;;;;5098035;28;20006;-75
2024/01/05 12:44:42;;;;;;;0.60;0.60;;;14.90;70.80;;;;;;5085371;28;20090;-76
2024/01/05 12:47:08;;;;;;;0.50;0.50;;;14.90;70.80;;;;;;5087165;28;20040;-76